sensor_id;sensor_type;location;lat;lon;timestamp;P1;durP1;ratioP1;P2;durP2;ratioP2
705;SDS011;21234;48.690;9.016;2023-05-08T00:00:08;11.10;;;10.07;;
705;SDS011;21234;48.690;9.016;2023-05-08T00:02:35;11.90;;;10.17;;
705;SDS011;21234;48.690;9.016;2023-05-08T00:05:02;11.77;;;9.87;;
705;SDS011;21234;48.690;9.016;2023-05-08T00:07:30;11.23;;;9.40;;
705;SDS011;21234;48.690;9.016;2023-05-08T00:09:56;9.67;;;8.30;;
705;SDS011;21234;48.690;9.016;2023-05-08T00:12:23;11.40;;;9.43;;
705;SDS011;21234;48.690;9.016;2023-05-08T00:14:51;8.27;;;7.47;;
705;SDS011;21234;48.690;9.016;2023-05-08T00:17:18;9.70;;;7.70;;
705;SDS011;21234;48.690;9.016;2023-05-08T00:19:44;9.67;;;7.80;;
705;SDS011;21234;48.690;9.016;2023-05-08T00:22:11;7.80;;;6.90;;
705;SDS011;21234;48.690;9.016;2023-05-08T00:24:37;8.37;;;6.80;;
705;SDS011;21234;48.690;9.016;2023-05-08T00:27:04;7.87;;;7.17;;
705;SDS011;21234;48.690;9.016;2023-05-08T00:29:32;7.13;;;6.43;;
705;SDS011;21234;48.690;9.016;2023-05-08T00:32:00;7.07;;;6.33;;
705;SDS011;21234;48.690;9.016;2023-05-08T00:34:27;10.33;;;8.53;;
705;SDS011;21234;48.690;9.016;2023-05-08T00:36:55;12.43;;;10.03;;
705;SDS011;21234;48.690;9.016;2023-05-08T00:39:21;11.60;;;10.40;;
705;SDS011;21234;48.690;9.016;2023-05-08T00:41:48;14.33;;;12.47;;
705;SDS011;21234;48.690;9.016;2023-05-08T00:44:15;15.10;;;12.30;;
705;SDS011;21234;48.690;9.016;2023-05-08T00:46:42;13.23;;;10.80;;
705;SDS011;21234;48.690;9.016;2023-05-08T00:49:12;13.97;;;12.43;;
705;SDS011;21234;48.690;9.016;2023-05-08T00:51:39;13.90;;;12.07;;
705;SDS011;21234;48.690;9.016;2023-05-08T00:54:08;17.60;;;12.47;;
705;SDS011;21234;48.690;9.016;2023-05-08T00:56:36;15.77;;;13.17;;
705;SDS011;21234;48.690;9.016;2023-05-08T00:59:05;13.47;;;11.00;;
705;SDS011;21234;48.690;9.016;2023-05-08T01:01:35;14.27;;;11.77;;
705;SDS011;21234;48.690;9.016;2023-05-08T01:04:02;15.57;;;12.87;;
705;SDS011;21234;48.690;9.016;2023-05-08T01:06:31;14.33;;;12.83;;
705;SDS011;21234;48.690;9.016;2023-05-08T01:08:58;16.60;;;14.00;;
705;SDS011;21234;48.690;9.016;2023-05-08T01:11:27;14.70;;;13.20;;
705;SDS011;21234;48.690;9.016;2023-05-08T01:13:59;13.70;;;12.27;;
705;SDS011;21234;48.690;9.016;2023-05-08T01:16:35;15.63;;;12.87;;
705;SDS011;21234;48.690;9.016;2023-05-08T01:19:12;14.00;;;11.27;;
705;SDS011;21234;48.690;9.016;2023-05-08T01:21:55;13.23;;;11.20;;
705;SDS011;21234;48.690;9.016;2023-05-08T01:24:32;14.33;;;11.77;;
705;SDS011;21234;48.690;9.016;2023-05-08T01:27:24;12.40;;;11.10;;
705;SDS011;21234;48.690;9.016;2023-05-08T01:30:18;13.10;;;11.03;;
705;SDS011;21234;48.690;9.016;2023-05-08T01:33:09;11.83;;;10.37;;
705;SDS011;21234;48.690;9.016;2023-05-08T01:35:44;11.53;;;10.43;;
705;SDS011;21234;48.690;9.016;2023-05-08T01:38:18;16.23;;;11.70;;
705;SDS011;21234;48.690;9.016;2023-05-08T01:40:52;13.37;;;10.70;;
705;SDS011;21234;48.690;9.016;2023-05-08T01:43:24;12.70;;;10.73;;
705;SDS011;21234;48.690;9.016;2023-05-08T01:45:58;14.07;;;12.23;;
705;SDS011;21234;48.690;9.016;2023-05-08T01:48:32;13.53;;;11.07;;
705;SDS011;21234;48.690;9.016;2023-05-08T01:51:05;15.10;;;12.00;;
705;SDS011;21234;48.690;9.016;2023-05-08T01:53:38;14.17;;;12.43;;
705;SDS011;21234;48.690;9.016;2023-05-08T01:56:08;13.23;;;11.90;;
705;SDS011;21234;48.690;9.016;2023-05-08T01:58:37;14.10;;;11.90;;
705;SDS011;21234;48.690;9.016;2023-05-08T02:01:04;17.90;;;13.43;;
705;SDS011;21234;48.690;9.016;2023-05-08T02:03:34;13.93;;;11.10;;
705;SDS011;21234;48.690;9.016;2023-05-08T02:06:03;12.63;;;11.07;;
705;SDS011;21234;48.690;9.016;2023-05-08T02:08:31;15.83;;;13.10;;
705;SDS011;21234;48.690;9.016;2023-05-08T02:10:59;13.93;;;12.07;;
705;SDS011;21234;48.690;9.016;2023-05-08T02:13:27;15.70;;;11.80;;
705;SDS011;21234;48.690;9.016;2023-05-08T02:15:55;15.60;;;11.60;;
705;SDS011;21234;48.690;9.016;2023-05-08T02:18:24;16.77;;;12.23;;
705;SDS011;21234;48.690;9.016;2023-05-08T02:20:56;13.80;;;11.77;;
705;SDS011;21234;48.690;9.016;2023-05-08T02:23:26;17.13;;;12.23;;
705;SDS011;21234;48.690;9.016;2023-05-08T02:25:54;12.93;;;10.70;;
705;SDS011;21234;48.690;9.016;2023-05-08T02:28:21;14.00;;;11.07;;
705;SDS011;21234;48.690;9.016;2023-05-08T02:30:49;11.80;;;10.40;;
705;SDS011;21234;48.690;9.016;2023-05-08T02:33:17;12.00;;;10.73;;
705;SDS011;21234;48.690;9.016;2023-05-08T02:35:45;11.97;;;10.07;;
705;SDS011;21234;48.690;9.016;2023-05-08T02:38:16;14.80;;;10.33;;
705;SDS011;21234;48.690;9.016;2023-05-08T02:40:45;12.20;;;9.10;;
705;SDS011;21234;48.690;9.016;2023-05-08T02:43:15;12.73;;;11.33;;
705;SDS011;21234;48.690;9.016;2023-05-08T02:45:44;9.57;;;8.20;;
705;SDS011;21234;48.690;9.016;2023-05-08T02:48:18;14.97;;;10.10;;
705;SDS011;21234;48.690;9.016;2023-05-08T02:50:53;13.77;;;10.30;;
705;SDS011;21234;48.690;9.016;2023-05-08T02:53:27;10.50;;;9.33;;
705;SDS011;21234;48.690;9.016;2023-05-08T02:56:01;12.97;;;10.50;;
705;SDS011;21234;48.690;9.016;2023-05-08T02:58:33;11.13;;;9.87;;
705;SDS011;21234;48.690;9.016;2023-05-08T03:01:09;12.30;;;10.47;;
705;SDS011;21234;48.690;9.016;2023-05-08T03:03:39;11.67;;;10.47;;
705;SDS011;21234;48.690;9.016;2023-05-08T03:06:08;11.70;;;9.97;;
705;SDS011;21234;48.690;9.016;2023-05-08T03:08:40;13.73;;;10.23;;
705;SDS011;21234;48.690;9.016;2023-05-08T03:11:10;13.27;;;9.90;;
705;SDS011;21234;48.690;9.016;2023-05-08T03:13:40;11.60;;;10.20;;
705;SDS011;21234;48.690;9.016;2023-05-08T03:16:10;12.40;;;11.03;;
705;SDS011;21234;48.690;9.016;2023-05-08T03:18:44;12.57;;;10.47;;
705;SDS011;21234;48.690;9.016;2023-05-08T03:21:16;12.03;;;9.33;;
705;SDS011;21234;48.690;9.016;2023-05-08T03:23:46;9.93;;;8.93;;
705;SDS011;21234;48.690;9.016;2023-05-08T03:26:16;9.53;;;8.63;;
705;SDS011;21234;48.690;9.016;2023-05-08T03:28:44;14.30;;;10.37;;
705;SDS011;21234;48.690;9.016;2023-05-08T03:31:13;10.40;;;9.30;;
705;SDS011;21234;48.690;9.016;2023-05-08T03:33:42;10.57;;;8.00;;
705;SDS011;21234;48.690;9.016;2023-05-08T03:36:10;11.83;;;8.17;;
705;SDS011;21234;48.690;9.016;2023-05-08T03:38:37;9.33;;;8.40;;
705;SDS011;21234;48.690;9.016;2023-05-08T03:41:06;9.80;;;8.33;;
705;SDS011;21234;48.690;9.016;2023-05-08T03:43:33;8.23;;;7.33;;
705;SDS011;21234;48.690;9.016;2023-05-08T03:46:03;10.30;;;9.13;;
705;SDS011;21234;48.690;9.016;2023-05-08T03:48:31;9.97;;;7.63;;
705;SDS011;21234;48.690;9.016;2023-05-08T03:51:00;9.50;;;8.40;;
705;SDS011;21234;48.690;9.016;2023-05-08T03:53:27;9.50;;;8.20;;
705;SDS011;21234;48.690;9.016;2023-05-08T03:55:57;10.20;;;9.00;;
705;SDS011;21234;48.690;9.016;2023-05-08T03:58:27;9.33;;;8.03;;
705;SDS011;21234;48.690;9.016;2023-05-08T04:01:00;11.33;;;10.13;;
705;SDS011;21234;48.690;9.016;2023-05-08T04:03:37;9.93;;;8.20;;
705;SDS011;21234;48.690;9.016;2023-05-08T04:06:14;11.83;;;9.40;;
705;SDS011;21234;48.690;9.016;2023-05-08T04:08:52;8.83;;;7.93;;
705;SDS011;21234;48.690;9.016;2023-05-08T04:11:29;9.83;;;8.47;;
705;SDS011;21234;48.690;9.016;2023-05-08T04:14:02;12.83;;;9.10;;
705;SDS011;21234;48.690;9.016;2023-05-08T04:16:34;12.63;;;10.50;;
705;SDS011;21234;48.690;9.016;2023-05-08T04:19:05;12.60;;;11.30;;
705;SDS011;21234;48.690;9.016;2023-05-08T04:21:38;12.90;;;9.90;;
705;SDS011;21234;48.690;9.016;2023-05-08T04:24:09;13.00;;;10.67;;
705;SDS011;21234;48.690;9.016;2023-05-08T04:26:40;12.47;;;10.77;;
705;SDS011;21234;48.690;9.016;2023-05-08T04:29:09;16.50;;;11.10;;
705;SDS011;21234;48.690;9.016;2023-05-08T04:31:36;13.63;;;10.33;;
705;SDS011;21234;48.690;9.016;2023-05-08T04:34:05;14.47;;;11.40;;
705;SDS011;21234;48.690;9.016;2023-05-08T04:36:33;14.33;;;12.80;;
705;SDS011;21234;48.690;9.016;2023-05-08T04:39:00;13.37;;;11.37;;
705;SDS011;21234;48.690;9.016;2023-05-08T04:41:28;16.87;;;12.50;;
705;SDS011;21234;48.690;9.016;2023-05-08T04:43:54;16.63;;;12.37;;
705;SDS011;21234;48.690;9.016;2023-05-08T04:46:23;15.93;;;12.20;;
705;SDS011;21234;48.690;9.016;2023-05-08T04:48:50;17.00;;;13.47;;
705;SDS011;21234;48.690;9.016;2023-05-08T04:51:16;19.93;;;17.17;;
705;SDS011;21234;48.690;9.016;2023-05-08T04:53:43;21.50;;;17.50;;
705;SDS011;21234;48.690;9.016;2023-05-08T04:56:10;19.00;;;15.37;;
705;SDS011;21234;48.690;9.016;2023-05-08T04:58:37;17.70;;;13.03;;
705;SDS011;21234;48.690;9.016;2023-05-08T05:01:04;17.23;;;14.50;;
705;SDS011;21234;48.690;9.016;2023-05-08T05:03:32;18.93;;;14.73;;
705;SDS011;21234;48.690;9.016;2023-05-08T05:05:59;21.97;;;14.80;;
705;SDS011;21234;48.690;9.016;2023-05-08T05:08:26;19.53;;;14.97;;
705;SDS011;21234;48.690;9.016;2023-05-08T05:10:53;19.87;;;15.33;;
705;SDS011;21234;48.690;9.016;2023-05-08T05:13:20;18.53;;;13.73;;
705;SDS011;21234;48.690;9.016;2023-05-08T05:15:47;22.63;;;14.47;;
705;SDS011;21234;48.690;9.016;2023-05-08T05:18:15;17.53;;;14.07;;
705;SDS011;21234;48.690;9.016;2023-05-08T05:20:43;16.07;;;11.20;;
705;SDS011;21234;48.690;9.016;2023-05-08T05:23:10;22.37;;;15.37;;
705;SDS011;21234;48.690;9.016;2023-05-08T05:25:37;15.80;;;12.63;;
705;SDS011;21234;48.690;9.016;2023-05-08T05:28:04;21.70;;;12.77;;
705;SDS011;21234;48.690;9.016;2023-05-08T05:30:31;19.10;;;13.57;;
705;SDS011;21234;48.690;9.016;2023-05-08T05:32:58;16.00;;;11.77;;
705;SDS011;21234;48.690;9.016;2023-05-08T05:35:25;19.87;;;14.50;;
705;SDS011;21234;48.690;9.016;2023-05-08T05:37:53;19.33;;;15.20;;
705;SDS011;21234;48.690;9.016;2023-05-08T05:40:20;17.40;;;13.40;;
705;SDS011;21234;48.690;9.016;2023-05-08T05:42:48;19.40;;;14.07;;
705;SDS011;21234;48.690;9.016;2023-05-08T05:45:15;24.60;;;16.10;;
705;SDS011;21234;48.690;9.016;2023-05-08T05:47:44;19.93;;;14.30;;
705;SDS011;21234;48.690;9.016;2023-05-08T05:50:14;17.50;;;13.10;;
705;SDS011;21234;48.690;9.016;2023-05-08T05:52:42;23.23;;;16.77;;
705;SDS011;21234;48.690;9.016;2023-05-08T05:55:10;22.43;;;17.77;;
705;SDS011;21234;48.690;9.016;2023-05-08T05:57:37;16.60;;;13.70;;
705;SDS011;21234;48.690;9.016;2023-05-08T06:00:06;18.57;;;14.07;;
705;SDS011;21234;48.690;9.016;2023-05-08T06:02:34;18.67;;;14.47;;
705;SDS011;21234;48.690;9.016;2023-05-08T06:05:01;21.30;;;14.73;;
705;SDS011;21234;48.690;9.016;2023-05-08T06:07:29;18.80;;;13.87;;
705;SDS011;21234;48.690;9.016;2023-05-08T06:09:55;19.63;;;16.57;;
705;SDS011;21234;48.690;9.016;2023-05-08T06:12:23;20.70;;;14.90;;
705;SDS011;21234;48.690;9.016;2023-05-08T06:14:52;19.90;;;13.80;;
705;SDS011;21234;48.690;9.016;2023-05-08T06:17:18;19.20;;;14.83;;
705;SDS011;21234;48.690;9.016;2023-05-08T06:19:45;21.17;;;14.00;;
705;SDS011;21234;48.690;9.016;2023-05-08T06:22:14;25.23;;;14.17;;
705;SDS011;21234;48.690;9.016;2023-05-08T06:24:41;17.37;;;13.83;;
705;SDS011;21234;48.690;9.016;2023-05-08T06:27:08;18.97;;;14.37;;
705;SDS011;21234;48.690;9.016;2023-05-08T06:29:36;19.43;;;13.20;;
705;SDS011;21234;48.690;9.016;2023-05-08T06:32:03;16.07;;;13.13;;
705;SDS011;21234;48.690;9.016;2023-05-08T06:34:30;16.47;;;13.13;;
705;SDS011;21234;48.690;9.016;2023-05-08T06:36:57;20.53;;;15.10;;
705;SDS011;21234;48.690;9.016;2023-05-08T06:39:23;23.97;;;14.87;;
705;SDS011;21234;48.690;9.016;2023-05-08T06:41:50;21.17;;;14.23;;
705;SDS011;21234;48.690;9.016;2023-05-08T06:44:17;19.23;;;14.80;;
705;SDS011;21234;48.690;9.016;2023-05-08T06:46:45;57.17;;;39.63;;
705;SDS011;21234;48.690;9.016;2023-05-08T06:49:12;21.43;;;15.90;;
705;SDS011;21234;48.690;9.016;2023-05-08T06:51:39;18.93;;;14.43;;
705;SDS011;21234;48.690;9.016;2023-05-08T06:54:06;17.10;;;13.60;;
705;SDS011;21234;48.690;9.016;2023-05-08T06:56:33;19.20;;;15.17;;
705;SDS011;21234;48.690;9.016;2023-05-08T06:58:59;18.00;;;14.13;;
705;SDS011;21234;48.690;9.016;2023-05-08T07:01:26;17.67;;;14.20;;
705;SDS011;21234;48.690;9.016;2023-05-08T07:03:54;19.93;;;14.67;;
705;SDS011;21234;48.690;9.016;2023-05-08T07:06:21;19.97;;;14.83;;
705;SDS011;21234;48.690;9.016;2023-05-08T07:08:48;20.47;;;14.40;;
705;SDS011;21234;48.690;9.016;2023-05-08T07:11:15;17.73;;;13.23;;
705;SDS011;21234;48.690;9.016;2023-05-08T07:13:41;17.70;;;13.10;;
705;SDS011;21234;48.690;9.016;2023-05-08T07:16:10;17.10;;;13.93;;
705;SDS011;21234;48.690;9.016;2023-05-08T07:18:36;16.07;;;12.10;;
705;SDS011;21234;48.690;9.016;2023-05-08T07:21:05;15.60;;;11.23;;
705;SDS011;21234;48.690;9.016;2023-05-08T07:23:32;15.67;;;13.67;;
705;SDS011;21234;48.690;9.016;2023-05-08T07:25:58;19.63;;;13.57;;
705;SDS011;21234;48.690;9.016;2023-05-08T07:28:25;17.67;;;13.10;;
705;SDS011;21234;48.690;9.016;2023-05-08T07:30:52;15.30;;;12.33;;
705;SDS011;21234;48.690;9.016;2023-05-08T07:33:18;15.23;;;13.13;;
705;SDS011;21234;48.690;9.016;2023-05-08T07:35:45;17.23;;;14.33;;
705;SDS011;21234;48.690;9.016;2023-05-08T07:38:13;13.90;;;11.23;;
705;SDS011;21234;48.690;9.016;2023-05-08T07:40:40;15.57;;;12.17;;
705;SDS011;21234;48.690;9.016;2023-05-08T07:43:07;16.70;;;12.87;;
705;SDS011;21234;48.690;9.016;2023-05-08T07:45:34;15.33;;;13.70;;
705;SDS011;21234;48.690;9.016;2023-05-08T07:48:01;13.57;;;10.93;;
705;SDS011;21234;48.690;9.016;2023-05-08T07:50:27;13.57;;;10.67;;
705;SDS011;21234;48.690;9.016;2023-05-08T07:52:55;13.60;;;10.90;;
705;SDS011;21234;48.690;9.016;2023-05-08T07:55:23;12.03;;;10.80;;
705;SDS011;21234;48.690;9.016;2023-05-08T07:57:50;10.47;;;9.23;;
705;SDS011;21234;48.690;9.016;2023-05-08T08:00:16;9.17;;;8.17;;
705;SDS011;21234;48.690;9.016;2023-05-08T08:02:43;10.53;;;8.40;;
705;SDS011;21234;48.690;9.016;2023-05-08T08:05:11;8.87;;;7.97;;
705;SDS011;21234;48.690;9.016;2023-05-08T08:07:38;9.97;;;8.17;;
705;SDS011;21234;48.690;9.016;2023-05-08T08:10:06;10.20;;;8.43;;
705;SDS011;21234;48.690;9.016;2023-05-08T08:12:35;10.70;;;9.60;;
705;SDS011;21234;48.690;9.016;2023-05-08T08:15:03;12.47;;;9.37;;
705;SDS011;21234;48.690;9.016;2023-05-08T08:17:31;9.53;;;8.43;;
705;SDS011;21234;48.690;9.016;2023-05-08T08:19:57;11.37;;;7.87;;
705;SDS011;21234;48.690;9.016;2023-05-08T08:22:25;9.40;;;8.30;;
705;SDS011;21234;48.690;9.016;2023-05-08T08:24:53;12.20;;;10.83;;
705;SDS011;21234;48.690;9.016;2023-05-08T08:27:20;12.73;;;9.80;;
705;SDS011;21234;48.690;9.016;2023-05-08T08:29:48;10.90;;;9.23;;
705;SDS011;21234;48.690;9.016;2023-05-08T08:32:15;46.90;;;34.37;;
705;SDS011;21234;48.690;9.016;2023-05-08T08:34:42;13.60;;;10.33;;
705;SDS011;21234;48.690;9.016;2023-05-08T08:37:08;12.67;;;9.77;;
705;SDS011;21234;48.690;9.016;2023-05-08T08:39:35;12.33;;;10.20;;
705;SDS011;21234;48.690;9.016;2023-05-08T08:42:02;10.53;;;9.43;;
705;SDS011;21234;48.690;9.016;2023-05-08T08:44:29;11.03;;;9.93;;
705;SDS011;21234;48.690;9.016;2023-05-08T08:46:57;10.57;;;9.33;;
705;SDS011;21234;48.690;9.016;2023-05-08T08:49:27;9.70;;;8.70;;
705;SDS011;21234;48.690;9.016;2023-05-08T08:51:57;13.50;;;11.37;;
705;SDS011;21234;48.690;9.016;2023-05-08T08:54:28;12.83;;;10.90;;
705;SDS011;21234;48.690;9.016;2023-05-08T08:56:59;14.27;;;12.80;;
705;SDS011;21234;48.690;9.016;2023-05-08T08:59:31;14.60;;;12.03;;
705;SDS011;21234;48.690;9.016;2023-05-08T09:02:00;13.83;;;11.80;;
705;SDS011;21234;48.690;9.016;2023-05-08T09:04:31;14.47;;;12.70;;
705;SDS011;21234;48.690;9.016;2023-05-08T09:06:58;12.27;;;11.07;;
705;SDS011;21234;48.690;9.016;2023-05-08T09:09:26;12.07;;;10.80;;
705;SDS011;21234;48.690;9.016;2023-05-08T09:11:53;11.97;;;10.67;;
705;SDS011;21234;48.690;9.016;2023-05-08T09:14:20;14.33;;;10.90;;
705;SDS011;21234;48.690;9.016;2023-05-08T09:16:49;12.37;;;11.07;;
705;SDS011;21234;48.690;9.016;2023-05-08T09:19:19;12.00;;;9.80;;
705;SDS011;21234;48.690;9.016;2023-05-08T09:21:46;11.60;;;10.20;;
705;SDS011;21234;48.690;9.016;2023-05-08T09:24:14;11.20;;;9.10;;
705;SDS011;21234;48.690;9.016;2023-05-08T09:26:40;9.80;;;8.90;;
705;SDS011;21234;48.690;9.016;2023-05-08T09:29:08;9.17;;;8.17;;
705;SDS011;21234;48.690;9.016;2023-05-08T09:31:37;8.80;;;7.90;;
705;SDS011;21234;48.690;9.016;2023-05-08T09:34:05;9.37;;;8.37;;
705;SDS011;21234;48.690;9.016;2023-05-08T09:36:34;8.47;;;7.60;;
705;SDS011;21234;48.690;9.016;2023-05-08T09:39:01;9.57;;;8.60;;
705;SDS011;21234;48.690;9.016;2023-05-08T09:41:28;8.83;;;7.97;;
705;SDS011;21234;48.690;9.016;2023-05-08T09:44:01;9.40;;;8.37;;
705;SDS011;21234;48.690;9.016;2023-05-08T09:46:29;7.10;;;6.40;;
705;SDS011;21234;48.690;9.016;2023-05-08T09:48:58;9.10;;;6.27;;
705;SDS011;21234;48.690;9.016;2023-05-08T09:51:27;7.30;;;6.60;;
705;SDS011;21234;48.690;9.016;2023-05-08T09:53:57;7.83;;;6.97;;
705;SDS011;21234;48.690;9.016;2023-05-08T09:56:28;7.47;;;6.77;;
705;SDS011;21234;48.690;9.016;2023-05-08T09:58:56;7.33;;;6.63;;
705;SDS011;21234;48.690;9.016;2023-05-08T10:01:26;7.63;;;6.60;;
705;SDS011;21234;48.690;9.016;2023-05-08T10:03:54;8.10;;;5.97;;
705;SDS011;21234;48.690;9.016;2023-05-08T10:06:22;6.67;;;6.00;;
705;SDS011;21234;48.690;9.016;2023-05-08T10:08:49;7.30;;;6.60;;
705;SDS011;21234;48.690;9.016;2023-05-08T10:11:33;6.10;;;5.27;;
705;SDS011;21234;48.690;9.016;2023-05-08T10:13:59;5.93;;;5.40;;
705;SDS011;21234;48.690;9.016;2023-05-08T10:16:27;6.10;;;4.93;;
705;SDS011;21234;48.690;9.016;2023-05-08T10:18:58;5.43;;;5.03;;
705;SDS011;21234;48.690;9.016;2023-05-08T10:21:29;5.00;;;4.50;;
705;SDS011;21234;48.690;9.016;2023-05-08T10:24:02;5.10;;;4.60;;
705;SDS011;21234;48.690;9.016;2023-05-08T10:26:32;4.57;;;4.17;;
705;SDS011;21234;48.690;9.016;2023-05-08T10:29:03;3.20;;;2.90;;
705;SDS011;21234;48.690;9.016;2023-05-08T10:31:33;3.77;;;3.03;;
705;SDS011;21234;48.690;9.016;2023-05-08T10:34:01;3.77;;;3.40;;
705;SDS011;21234;48.690;9.016;2023-05-08T10:36:29;4.47;;;3.03;;
705;SDS011;21234;48.690;9.016;2023-05-08T10:38:57;3.47;;;3.17;;
705;SDS011;21234;48.690;9.016;2023-05-08T10:41:24;3.83;;;3.33;;
705;SDS011;21234;48.690;9.016;2023-05-08T10:43:53;4.27;;;3.87;;
705;SDS011;21234;48.690;9.016;2023-05-08T10:46:21;3.63;;;3.30;;
705;SDS011;21234;48.690;9.016;2023-05-08T10:48:55;4.10;;;3.80;;
705;SDS011;21234;48.690;9.016;2023-05-08T10:51:34;3.77;;;3.40;;
705;SDS011;21234;48.690;9.016;2023-05-08T10:54:09;4.50;;;4.13;;
705;SDS011;21234;48.690;9.016;2023-05-08T10:56:41;4.13;;;3.80;;
705;SDS011;21234;48.690;9.016;2023-05-08T10:59:09;3.93;;;3.63;;
705;SDS011;21234;48.690;9.016;2023-05-08T11:01:45;3.10;;;2.80;;
705;SDS011;21234;48.690;9.016;2023-05-08T11:04:19;3.30;;;2.97;;
705;SDS011;21234;48.690;9.016;2023-05-08T11:06:47;3.40;;;2.83;;
705;SDS011;21234;48.690;9.016;2023-05-08T11:09:20;3.73;;;3.10;;
705;SDS011;21234;48.690;9.016;2023-05-08T11:11:53;2.80;;;2.60;;
705;SDS011;21234;48.690;9.016;2023-05-08T11:14:29;3.37;;;3.17;;
705;SDS011;21234;48.690;9.016;2023-05-08T11:17:02;2.43;;;2.23;;
705;SDS011;21234;48.690;9.016;2023-05-08T11:19:32;6.00;;;2.43;;
705;SDS011;21234;48.690;9.016;2023-05-08T11:25:00;2.77;;;2.57;;
705;SDS011;21234;48.690;9.016;2023-05-08T11:30:42;3.47;;;2.70;;
705;SDS011;21234;48.690;9.016;2023-05-08T11:35:46;3.83;;;3.47;;
705;SDS011;21234;48.690;9.016;2023-05-08T11:38:15;3.93;;;3.53;;
705;SDS011;21234;48.690;9.016;2023-05-08T11:40:47;4.00;;;3.60;;
705;SDS011;21234;48.690;9.016;2023-05-08T11:43:23;4.57;;;3.30;;
705;SDS011;21234;48.690;9.016;2023-05-08T11:45:52;3.47;;;3.17;;
705;SDS011;21234;48.690;9.016;2023-05-08T11:48:19;4.10;;;3.40;;
705;SDS011;21234;48.690;9.016;2023-05-08T11:50:46;3.23;;;2.93;;
705;SDS011;21234;48.690;9.016;2023-05-08T11:53:13;4.03;;;3.73;;
705;SDS011;21234;48.690;9.016;2023-05-08T11:55:40;3.70;;;2.77;;
705;SDS011;21234;48.690;9.016;2023-05-08T11:58:12;5.60;;;3.73;;
705;SDS011;21234;48.690;9.016;2023-05-08T12:00:40;3.80;;;3.50;;
705;SDS011;21234;48.690;9.016;2023-05-08T12:03:11;3.30;;;3.00;;
705;SDS011;21234;48.690;9.016;2023-05-08T12:05:39;3.70;;;3.40;;
705;SDS011;21234;48.690;9.016;2023-05-08T12:08:06;3.63;;;3.33;;
705;SDS011;21234;48.690;9.016;2023-05-08T12:10:38;3.60;;;3.30;;
705;SDS011;21234;48.690;9.016;2023-05-08T12:13:14;4.40;;;4.00;;
705;SDS011;21234;48.690;9.016;2023-05-08T12:15:42;4.70;;;3.87;;
705;SDS011;21234;48.690;9.016;2023-05-08T12:18:08;5.73;;;4.37;;
705;SDS011;21234;48.690;9.016;2023-05-08T12:20:36;5.00;;;4.50;;
705;SDS011;21234;48.690;9.016;2023-05-08T12:23:03;4.50;;;4.10;;
705;SDS011;21234;48.690;9.016;2023-05-08T12:25:30;5.97;;;5.17;;
705;SDS011;21234;48.690;9.016;2023-05-08T12:27:57;6.00;;;5.07;;
705;SDS011;21234;48.690;9.016;2023-05-08T12:30:25;7.17;;;6.47;;
705;SDS011;21234;48.690;9.016;2023-05-08T12:32:51;7.03;;;6.30;;
705;SDS011;21234;48.690;9.016;2023-05-08T12:35:18;7.67;;;6.23;;
705;SDS011;21234;48.690;9.016;2023-05-08T12:37:47;8.17;;;7.07;;
705;SDS011;21234;48.690;9.016;2023-05-08T12:40:23;6.23;;;5.23;;
705;SDS011;21234;48.690;9.016;2023-05-08T12:42:51;6.30;;;5.67;;
705;SDS011;21234;48.690;9.016;2023-05-08T12:45:19;6.50;;;5.90;;
705;SDS011;21234;48.690;9.016;2023-05-08T12:47:47;6.60;;;5.97;;
705;SDS011;21234;48.690;9.016;2023-05-08T12:50:14;6.70;;;6.07;;
705;SDS011;21234;48.690;9.016;2023-05-08T12:52:42;7.50;;;6.80;;
705;SDS011;21234;48.690;9.016;2023-05-08T12:55:24;7.93;;;6.90;;
705;SDS011;21234;48.690;9.016;2023-05-08T12:57:57;8.20;;;6.37;;
705;SDS011;21234;48.690;9.016;2023-05-08T13:00:27;9.23;;;6.90;;
705;SDS011;21234;48.690;9.016;2023-05-08T13:03:00;7.07;;;6.37;;
705;SDS011;21234;48.690;9.016;2023-05-08T13:05:26;7.30;;;6.17;;
705;SDS011;21234;48.690;9.016;2023-05-08T13:07:57;6.90;;;5.87;;
705;SDS011;21234;48.690;9.016;2023-05-08T13:13:13;8.43;;;5.90;;
705;SDS011;21234;48.690;9.016;2023-05-08T13:15:40;8.20;;;5.80;;
705;SDS011;21234;48.690;9.016;2023-05-08T13:18:07;6.30;;;5.70;;
705;SDS011;21234;48.690;9.016;2023-05-08T13:20:34;5.87;;;5.27;;
705;SDS011;21234;48.690;9.016;2023-05-08T13:23:01;6.27;;;5.40;;
705;SDS011;21234;48.690;9.016;2023-05-08T13:25:29;7.67;;;6.97;;
705;SDS011;21234;48.690;9.016;2023-05-08T13:27:57;5.73;;;5.23;;
705;SDS011;21234;48.690;9.016;2023-05-08T13:30:24;5.70;;;5.20;;
705;SDS011;21234;48.690;9.016;2023-05-08T13:32:51;5.27;;;4.77;;
705;SDS011;21234;48.690;9.016;2023-05-08T13:35:18;6.30;;;5.70;;
705;SDS011;21234;48.690;9.016;2023-05-08T13:37:46;5.93;;;5.43;;
705;SDS011;21234;48.690;9.016;2023-05-08T13:40:13;5.40;;;5.00;;
705;SDS011;21234;48.690;9.016;2023-05-08T13:42:41;8.10;;;6.50;;
705;SDS011;21234;48.690;9.016;2023-05-08T13:45:09;7.00;;;6.30;;
705;SDS011;21234;48.690;9.016;2023-05-08T13:47:38;7.10;;;6.40;;
705;SDS011;21234;48.690;9.016;2023-05-08T13:50:05;9.60;;;5.83;;
705;SDS011;21234;48.690;9.016;2023-05-08T13:52:33;6.53;;;5.93;;
705;SDS011;21234;48.690;9.016;2023-05-08T13:55:00;6.00;;;5.50;;
705;SDS011;21234;48.690;9.016;2023-05-08T13:57:27;7.23;;;5.67;;
705;SDS011;21234;48.690;9.016;2023-05-08T13:59:53;6.50;;;5.73;;
705;SDS011;21234;48.690;9.016;2023-05-08T14:02:21;9.33;;;7.03;;
705;SDS011;21234;48.690;9.016;2023-05-08T14:04:48;6.63;;;5.93;;
705;SDS011;21234;48.690;9.016;2023-05-08T14:07:15;7.40;;;6.57;;
705;SDS011;21234;48.690;9.016;2023-05-08T14:09:42;8.23;;;7.43;;
705;SDS011;21234;48.690;9.016;2023-05-08T14:12:09;6.07;;;5.33;;
705;SDS011;21234;48.690;9.016;2023-05-08T14:14:36;6.93;;;6.30;;
705;SDS011;21234;48.690;9.016;2023-05-08T14:17:03;7.77;;;6.67;;
705;SDS011;21234;48.690;9.016;2023-05-08T14:19:32;7.93;;;7.20;;
705;SDS011;21234;48.690;9.016;2023-05-08T14:21:59;6.13;;;5.60;;
705;SDS011;21234;48.690;9.016;2023-05-08T14:24:26;8.87;;;6.30;;
705;SDS011;21234;48.690;9.016;2023-05-08T14:26:53;5.63;;;5.13;;
705;SDS011;21234;48.690;9.016;2023-05-08T14:29:19;7.37;;;6.63;;
705;SDS011;21234;48.690;9.016;2023-05-08T14:31:46;6.73;;;5.60;;
705;SDS011;21234;48.690;9.016;2023-05-08T14:34:13;8.63;;;6.27;;
705;SDS011;21234;48.690;9.016;2023-05-08T14:36:41;7.10;;;6.40;;
705;SDS011;21234;48.690;9.016;2023-05-08T14:39:07;8.50;;;7.30;;
705;SDS011;21234;48.690;9.016;2023-05-08T14:41:34;13.73;;;8.97;;
705;SDS011;21234;48.690;9.016;2023-05-08T14:44:02;10.77;;;9.67;;
705;SDS011;21234;48.690;9.016;2023-05-08T14:46:29;12.80;;;11.50;;
705;SDS011;21234;48.690;9.016;2023-05-08T14:48:55;15.87;;;11.70;;
705;SDS011;21234;48.690;9.016;2023-05-08T14:51:22;13.20;;;11.80;;
705;SDS011;21234;48.690;9.016;2023-05-08T14:53:50;13.50;;;12.17;;
705;SDS011;21234;48.690;9.016;2023-05-08T14:56:17;11.90;;;10.70;;
705;SDS011;21234;48.690;9.016;2023-05-08T14:58:44;12.87;;;11.33;;
705;SDS011;21234;48.690;9.016;2023-05-08T15:01:10;14.07;;;11.70;;
705;SDS011;21234;48.690;9.016;2023-05-08T15:03:37;12.93;;;11.73;;
705;SDS011;21234;48.690;9.016;2023-05-08T15:06:04;14.03;;;10.40;;
705;SDS011;21234;48.690;9.016;2023-05-08T15:08:31;11.77;;;10.10;;
705;SDS011;21234;48.690;9.016;2023-05-08T15:10:59;12.40;;;11.10;;
705;SDS011;21234;48.690;9.016;2023-05-08T15:13:26;20.07;;;11.43;;
705;SDS011;21234;48.690;9.016;2023-05-08T15:15:53;16.20;;;13.07;;
705;SDS011;21234;48.690;9.016;2023-05-08T15:18:19;14.37;;;12.87;;
705;SDS011;21234;48.690;9.016;2023-05-08T15:20:48;15.20;;;12.13;;